KLWS/LWS METAR and TAF weather

Enter ICAO airport designator
Station Type Date Time Source
KLWS METAR 2022/06/27 07:56 UTC NOAA

KLWS 270756Z AUTO 16005KT 10SM CLR 19/12 A3003 RMK AO2 SLP160 T01940117 403330117


Station Type Date Time Source
KLWS Decoded METAR 2022/06/27 07:56 UTC NOAA

LEWISTON NEZ PERCE CO AIRPORT , ID, United States (KLWS) 46-22N 117-01W 438M
Jun 27, 2022 - 03:56 AM EDT / 2022.06.27 0756 UTC
Wind: from the SSE (160 degrees) at 6 MPH (5 KT):0
Visibility: 10 mile(s):0
Sky conditions: clear
Temperature: 66.9 F (19.4 C)
Dew Point: 53.1 F (11.7 C)
Relative Humidity: 61%
Pressure (altimeter): 30.03 in. Hg (1016 hPa)
ob: KLWS 270756Z AUTO 16005KT 10SM CLR 19/12 A3003 RMK AO2 SLP160 T01940117 403330117
cycle: 8

Station Type Date Time Source
KLWS TAF 2022/06/27 06:22 UTC NOAA

TAF KLWS 270520Z 2706/2806 VRB05KT P6SM SKC
FM280000 06004KT P6SM SCT150
FM280400 05050KT P6SM FEW250

Example: see airport list